sensor_id;sensor_type;location;lat;lon;timestamp;temperature;humidity
22742;DHT22;11538;48.884;8.696;2024-01-11T00:00:18;-2.00;99.90
22742;DHT22;11538;48.884;8.696;2024-01-11T00:02:46;-2.00;99.90
22742;DHT22;11538;48.884;8.696;2024-01-11T00:05:13;-2.00;99.90
22742;DHT22;11538;48.884;8.696;2024-01-11T00:07:40;-2.00;99.90
22742;DHT22;11538;48.884;8.696;2024-01-11T00:10:07;-2.00;99.90
22742;DHT22;11538;48.884;8.696;2024-01-11T00:12:34;-2.00;99.90
22742;DHT22;11538;48.884;8.696;2024-01-11T00:15:01;-2.00;99.90
22742;DHT22;11538;48.884;8.696;2024-01-11T00:17:28;-2.10;99.90
22742;DHT22;11538;48.884;8.696;2024-01-11T00:19:55;-2.00;99.90
22742;DHT22;11538;48.884;8.696;2024-01-11T00:22:22;-2.00;99.90
22742;DHT22;11538;48.884;8.696;2024-01-11T00:24:49;-2.00;99.90
22742;DHT22;11538;48.884;8.696;2024-01-11T00:27:15;-2.00;99.90
22742;DHT22;11538;48.884;8.696;2024-01-11T00:29:43;-2.00;99.90
22742;DHT22;11538;48.884;8.696;2024-01-11T00:32:10;-2.00;99.90
22742;DHT22;11538;48.884;8.696;2024-01-11T00:34:37;-2.00;99.90
22742;DHT22;11538;48.884;8.696;2024-01-11T00:37:05;-1.90;99.90
22742;DHT22;11538;48.884;8.696;2024-01-11T00:39:32;-1.90;99.90
22742;DHT22;11538;48.884;8.696;2024-01-11T00:41:59;-1.90;99.90
22742;DHT22;11538;48.884;8.696;2024-01-11T00:44:26;-2.00;99.90
22742;DHT22;11538;48.884;8.696;2024-01-11T00:46:53;-1.90;99.90
22742;DHT22;11538;48.884;8.696;2024-01-11T00:49:20;-1.90;99.90
22742;DHT22;11538;48.884;8.696;2024-01-11T00:51:47;-2.00;99.90
22742;DHT22;11538;48.884;8.696;2024-01-11T00:54:14;-1.90;99.90
22742;DHT22;11538;48.884;8.696;2024-01-11T00:56:41;-1.90;99.90
22742;DHT22;11538;48.884;8.696;2024-01-11T00:59:08;-1.90;99.90
22742;DHT22;11538;48.884;8.696;2024-01-11T01:01:35;-1.90;99.90
22742;DHT22;11538;48.884;8.696;2024-01-11T01:04:03;-1.90;99.90
22742;DHT22;11538;48.884;8.696;2024-01-11T01:06:30;-1.90;99.90
22742;DHT22;11538;48.884;8.696;2024-01-11T01:08:58;-1.90;99.90
22742;DHT22;11538;48.884;8.696;2024-01-11T01:11:25;-1.90;99.90
22742;DHT22;11538;48.884;8.696;2024-01-11T01:13:52;-1.90;99.90
22742;DHT22;11538;48.884;8.696;2024-01-11T01:16:22;-1.90;99.90
22742;DHT22;11538;48.884;8.696;2024-01-11T01:18:49;-1.90;99.90
22742;DHT22;11538;48.884;8.696;2024-01-11T01:21:16;-1.90;99.90
22742;DHT22;11538;48.884;8.696;2024-01-11T01:23:43;-1.90;99.90
22742;DHT22;11538;48.884;8.696;2024-01-11T01:26:10;-2.00;99.90
22742;DHT22;11538;48.884;8.696;2024-01-11T01:28:37;-2.00;99.90
22742;DHT22;11538;48.884;8.696;2024-01-11T01:31:04;-2.00;99.90
22742;DHT22;11538;48.884;8.696;2024-01-11T01:33:31;-2.00;99.90
22742;DHT22;11538;48.884;8.696;2024-01-11T01:35:58;-2.00;99.90
22742;DHT22;11538;48.884;8.696;2024-01-11T01:38:25;-2.00;99.90
22742;DHT22;11538;48.884;8.696;2024-01-11T01:40:52;-2.10;99.90
22742;DHT22;11538;48.884;8.696;2024-01-11T01:43:18;-2.10;99.90
22742;DHT22;11538;48.884;8.696;2024-01-11T01:45:46;-2.20;99.90
22742;DHT22;11538;48.884;8.696;2024-01-11T01:48:14;-2.20;99.90
22742;DHT22;11538;48.884;8.696;2024-01-11T01:50:41;-2.20;99.90
22742;DHT22;11538;48.884;8.696;2024-01-11T01:53:09;-2.20;99.90
22742;DHT22;11538;48.884;8.696;2024-01-11T01:55:36;-2.20;99.90
22742;DHT22;11538;48.884;8.696;2024-01-11T01:58:03;-2.20;99.90
22742;DHT22;11538;48.884;8.696;2024-01-11T02:00:30;-2.20;99.90
22742;DHT22;11538;48.884;8.696;2024-01-11T02:02:58;-2.20;99.90
22742;DHT22;11538;48.884;8.696;2024-01-11T02:05:25;-2.20;99.90
22742;DHT22;11538;48.884;8.696;2024-01-11T02:07:52;-2.20;99.90
22742;DHT22;11538;48.884;8.696;2024-01-11T02:10:19;-2.20;99.90
22742;DHT22;11538;48.884;8.696;2024-01-11T02:12:48;-2.30;99.90
22742;DHT22;11538;48.884;8.696;2024-01-11T02:15:16;-2.30;99.90
22742;DHT22;11538;48.884;8.696;2024-01-11T02:17:43;-2.30;99.90
22742;DHT22;11538;48.884;8.696;2024-01-11T02:20:10;-2.40;99.90
22742;DHT22;11538;48.884;8.696;2024-01-11T02:22:44;-2.40;99.90
22742;DHT22;11538;48.884;8.696;2024-01-11T02:25:14;-2.50;99.90
22742;DHT22;11538;48.884;8.696;2024-01-11T02:27:45;-2.50;99.90
22742;DHT22;11538;48.884;8.696;2024-01-11T02:30:13;-2.50;99.90
22742;DHT22;11538;48.884;8.696;2024-01-11T02:32:43;-2.60;99.90
22742;DHT22;11538;48.884;8.696;2024-01-11T02:35:14;-2.60;99.90
22742;DHT22;11538;48.884;8.696;2024-01-11T02:37:43;-2.70;99.90
22742;DHT22;11538;48.884;8.696;2024-01-11T02:40:13;-2.70;99.90
22742;DHT22;11538;48.884;8.696;2024-01-11T02:42:41;-2.70;99.90
22742;DHT22;11538;48.884;8.696;2024-01-11T02:45:11;-2.70;99.90
22742;DHT22;11538;48.884;8.696;2024-01-11T02:47:39;-2.70;99.90
22742;DHT22;11538;48.884;8.696;2024-01-11T02:50:07;-2.70;99.90
22742;DHT22;11538;48.884;8.696;2024-01-11T02:52:35;-2.70;99.90
22742;DHT22;11538;48.884;8.696;2024-01-11T02:55:02;-2.70;99.90
22742;DHT22;11538;48.884;8.696;2024-01-11T02:57:29;-2.70;99.90
22742;DHT22;11538;48.884;8.696;2024-01-11T02:59:56;-2.70;99.90
22742;DHT22;11538;48.884;8.696;2024-01-11T03:02:23;-2.80;99.90
22742;DHT22;11538;48.884;8.696;2024-01-11T03:04:50;-2.80;99.90
22742;DHT22;11538;48.884;8.696;2024-01-11T03:07:17;-2.90;99.90
22742;DHT22;11538;48.884;8.696;2024-01-11T03:09:44;-2.90;99.90
22742;DHT22;11538;48.884;8.696;2024-01-11T03:12:11;-2.90;99.90
22742;DHT22;11538;48.884;8.696;2024-01-11T03:14:38;-2.90;99.90
22742;DHT22;11538;48.884;8.696;2024-01-11T03:17:05;-2.90;99.90
22742;DHT22;11538;48.884;8.696;2024-01-11T03:19:33;-2.90;99.90
22742;DHT22;11538;48.884;8.696;2024-01-11T03:22:00;-2.80;99.90
22742;DHT22;11538;48.884;8.696;2024-01-11T03:24:31;-2.80;99.90
22742;DHT22;11538;48.884;8.696;2024-01-11T03:26:58;-2.80;99.90
22742;DHT22;11538;48.884;8.696;2024-01-11T03:29:25;-2.80;99.90
22742;DHT22;11538;48.884;8.696;2024-01-11T03:31:52;-2.80;99.90
22742;DHT22;11538;48.884;8.696;2024-01-11T03:34:19;-2.80;99.90
22742;DHT22;11538;48.884;8.696;2024-01-11T03:36:46;-2.80;99.90
22742;DHT22;11538;48.884;8.696;2024-01-11T03:39:13;-2.80;99.90
22742;DHT22;11538;48.884;8.696;2024-01-11T03:41:44;-2.80;99.90
22742;DHT22;11538;48.884;8.696;2024-01-11T03:44:12;-2.80;99.90
22742;DHT22;11538;48.884;8.696;2024-01-11T03:46:39;-2.80;99.90
22742;DHT22;11538;48.884;8.696;2024-01-11T03:49:06;-2.80;99.90
22742;DHT22;11538;48.884;8.696;2024-01-11T03:51:34;-2.80;99.90
22742;DHT22;11538;48.884;8.696;2024-01-11T03:54:02;-2.80;99.90
22742;DHT22;11538;48.884;8.696;2024-01-11T03:56:29;-2.90;99.90
22742;DHT22;11538;48.884;8.696;2024-01-11T03:58:57;-2.90;99.90
22742;DHT22;11538;48.884;8.696;2024-01-11T04:01:24;-3.00;99.90
22742;DHT22;11538;48.884;8.696;2024-01-11T04:03:51;-3.00;99.90
22742;DHT22;11538;48.884;8.696;2024-01-11T04:06:22;-3.00;99.90
22742;DHT22;11538;48.884;8.696;2024-01-11T04:08:51;-3.10;99.90
22742;DHT22;11538;48.884;8.696;2024-01-11T04:11:18;-3.10;99.90
22742;DHT22;11538;48.884;8.696;2024-01-11T04:13:46;-3.10;99.90
22742;DHT22;11538;48.884;8.696;2024-01-11T04:16:13;-3.10;99.90
22742;DHT22;11538;48.884;8.696;2024-01-11T04:18:40;-3.10;99.90
22742;DHT22;11538;48.884;8.696;2024-01-11T04:21:07;-3.10;99.90
22742;DHT22;11538;48.884;8.696;2024-01-11T04:23:34;-3.10;99.90
22742;DHT22;11538;48.884;8.696;2024-01-11T04:26:01;-3.10;99.90
22742;DHT22;11538;48.884;8.696;2024-01-11T04:28:28;-3.10;99.90
22742;DHT22;11538;48.884;8.696;2024-01-11T04:30:55;-3.10;99.90
22742;DHT22;11538;48.884;8.696;2024-01-11T04:33:22;-3.20;99.90
22742;DHT22;11538;48.884;8.696;2024-01-11T04:35:49;-3.30;99.90
22742;DHT22;11538;48.884;8.696;2024-01-11T04:38:16;-3.40;99.90
22742;DHT22;11538;48.884;8.696;2024-01-11T04:40:43;-3.40;99.90
22742;DHT22;11538;48.884;8.696;2024-01-11T04:43:10;-3.40;99.90
22742;DHT22;11538;48.884;8.696;2024-01-11T04:45:37;-3.40;99.90
22742;DHT22;11538;48.884;8.696;2024-01-11T04:48:04;-3.40;99.90
22742;DHT22;11538;48.884;8.696;2024-01-11T04:50:31;-3.40;99.90
22742;DHT22;11538;48.884;8.696;2024-01-11T04:52:58;-3.40;99.90
22742;DHT22;11538;48.884;8.696;2024-01-11T04:55:25;-3.40;99.90
22742;DHT22;11538;48.884;8.696;2024-01-11T04:57:52;-3.40;99.90
22742;DHT22;11538;48.884;8.696;2024-01-11T05:00:19;-3.40;99.90
22742;DHT22;11538;48.884;8.696;2024-01-11T05:02:46;-3.40;99.90
22742;DHT22;11538;48.884;8.696;2024-01-11T05:05:13;-3.30;99.90
22742;DHT22;11538;48.884;8.696;2024-01-11T05:07:40;-3.20;99.90
22742;DHT22;11538;48.884;8.696;2024-01-11T05:10:07;-3.20;99.90
22742;DHT22;11538;48.884;8.696;2024-01-11T05:12:34;-3.20;99.90
22742;DHT22;11538;48.884;8.696;2024-01-11T05:15:04;-3.10;99.90
22742;DHT22;11538;48.884;8.696;2024-01-11T05:17:33;-3.10;99.90
22742;DHT22;11538;48.884;8.696;2024-01-11T05:20:00;-3.10;99.90
22742;DHT22;11538;48.884;8.696;2024-01-11T05:22:27;-3.10;99.90
22742;DHT22;11538;48.884;8.696;2024-01-11T05:24:54;-3.10;99.90
22742;DHT22;11538;48.884;8.696;2024-01-11T05:27:21;-3.10;99.90
22742;DHT22;11538;48.884;8.696;2024-01-11T05:29:47;-3.10;99.90
22742;DHT22;11538;48.884;8.696;2024-01-11T05:32:14;-3.10;99.90
22742;DHT22;11538;48.884;8.696;2024-01-11T05:34:41;-3.10;99.90
22742;DHT22;11538;48.884;8.696;2024-01-11T05:37:08;-3.00;99.90
22742;DHT22;11538;48.884;8.696;2024-01-11T05:39:35;-3.00;99.90
22742;DHT22;11538;48.884;8.696;2024-01-11T05:42:02;-3.00;99.90
22742;DHT22;11538;48.884;8.696;2024-01-11T05:44:29;-3.00;99.90
22742;DHT22;11538;48.884;8.696;2024-01-11T05:46:56;-3.00;99.90
22742;DHT22;11538;48.884;8.696;2024-01-11T05:49:23;-3.00;99.90
22742;DHT22;11538;48.884;8.696;2024-01-11T05:51:50;-3.00;99.90
22742;DHT22;11538;48.884;8.696;2024-01-11T05:54:17;-3.00;99.90
22742;DHT22;11538;48.884;8.696;2024-01-11T05:56:44;-3.00;99.90
22742;DHT22;11538;48.884;8.696;2024-01-11T05:59:11;-3.00;99.90
22742;DHT22;11538;48.884;8.696;2024-01-11T06:01:42;-3.00;99.90
22742;DHT22;11538;48.884;8.696;2024-01-11T06:04:11;-3.00;99.90
22742;DHT22;11538;48.884;8.696;2024-01-11T06:06:40;-2.90;99.90
22742;DHT22;11538;48.884;8.696;2024-01-11T06:09:07;-2.90;99.90
22742;DHT22;11538;48.884;8.696;2024-01-11T06:11:34;-2.90;99.90
22742;DHT22;11538;48.884;8.696;2024-01-11T06:14:01;-3.00;99.90
22742;DHT22;11538;48.884;8.696;2024-01-11T06:16:29;-3.00;99.90
22742;DHT22;11538;48.884;8.696;2024-01-11T06:18:57;-3.00;99.90
22742;DHT22;11538;48.884;8.696;2024-01-11T06:21:27;-3.10;99.90
22742;DHT22;11538;48.884;8.696;2024-01-11T06:23:54;-3.10;99.90
22742;DHT22;11538;48.884;8.696;2024-01-11T06:26:21;-3.10;99.90
22742;DHT22;11538;48.884;8.696;2024-01-11T06:28:49;-3.00;99.90
22742;DHT22;11538;48.884;8.696;2024-01-11T06:31:16;-3.10;99.90
22742;DHT22;11538;48.884;8.696;2024-01-11T06:33:44;-3.10;99.90
22742;DHT22;11538;48.884;8.696;2024-01-11T06:36:15;-3.10;99.90
22742;DHT22;11538;48.884;8.696;2024-01-11T06:38:42;-3.10;99.90
22742;DHT22;11538;48.884;8.696;2024-01-11T06:41:09;-3.30;99.90
22742;DHT22;11538;48.884;8.696;2024-01-11T06:43:36;-3.30;99.90
22742;DHT22;11538;48.884;8.696;2024-01-11T06:46:04;-3.40;99.90
22742;DHT22;11538;48.884;8.696;2024-01-11T06:48:32;-3.50;99.90
22742;DHT22;11538;48.884;8.696;2024-01-11T06:51:00;-3.60;99.90
22742;DHT22;11538;48.884;8.696;2024-01-11T06:53:28;-3.60;99.90
22742;DHT22;11538;48.884;8.696;2024-01-11T06:55:55;-3.60;99.90
22742;DHT22;11538;48.884;8.696;2024-01-11T06:58:22;-3.60;99.90
22742;DHT22;11538;48.884;8.696;2024-01-11T07:00:49;-3.60;99.90
22742;DHT22;11538;48.884;8.696;2024-01-11T07:03:17;-3.50;99.90
22742;DHT22;11538;48.884;8.696;2024-01-11T07:05:45;-3.50;99.90
22742;DHT22;11538;48.884;8.696;2024-01-11T07:08:12;-3.50;99.90
22742;DHT22;11538;48.884;8.696;2024-01-11T07:10:39;-3.50;99.90
22742;DHT22;11538;48.884;8.696;2024-01-11T07:13:06;-3.50;99.90
22742;DHT22;11538;48.884;8.696;2024-01-11T07:15:33;-3.60;99.90
22742;DHT22;11538;48.884;8.696;2024-01-11T07:18:00;-3.50;99.90
22742;DHT22;11538;48.884;8.696;2024-01-11T07:20:28;-3.60;99.90
22742;DHT22;11538;48.884;8.696;2024-01-11T07:22:55;-3.60;99.90
22742;DHT22;11538;48.884;8.696;2024-01-11T07:25:22;-3.60;99.90
22742;DHT22;11538;48.884;8.696;2024-01-11T07:27:49;-3.60;99.90
22742;DHT22;11538;48.884;8.696;2024-01-11T07:30:16;-3.60;99.90
22742;DHT22;11538;48.884;8.696;2024-01-11T07:32:45;-3.70;99.90
22742;DHT22;11538;48.884;8.696;2024-01-11T07:35:12;-3.60;99.90
22742;DHT22;11538;48.884;8.696;2024-01-11T07:37:44;-3.60;99.90
22742;DHT22;11538;48.884;8.696;2024-01-11T07:40:11;-3.50;99.90
22742;DHT22;11538;48.884;8.696;2024-01-11T07:42:40;-3.50;99.90
22742;DHT22;11538;48.884;8.696;2024-01-11T07:45:07;-3.40;99.90
22742;DHT22;11538;48.884;8.696;2024-01-11T07:47:36;-3.40;99.90
22742;DHT22;11538;48.884;8.696;2024-01-11T07:50:07;-3.40;99.90
22742;DHT22;11538;48.884;8.696;2024-01-11T07:52:38;-3.40;99.90
22742;DHT22;11538;48.884;8.696;2024-01-11T07:55:09;-3.40;99.90
22742;DHT22;11538;48.884;8.696;2024-01-11T07:57:39;-3.30;99.90
22742;DHT22;11538;48.884;8.696;2024-01-11T08:00:07;-3.30;99.90
22742;DHT22;11538;48.884;8.696;2024-01-11T08:02:35;-3.20;99.90
22742;DHT22;11538;48.884;8.696;2024-01-11T08:05:02;-3.20;99.90
22742;DHT22;11538;48.884;8.696;2024-01-11T08:07:30;-3.20;99.90
22742;DHT22;11538;48.884;8.696;2024-01-11T08:09:57;-3.20;99.90
22742;DHT22;11538;48.884;8.696;2024-01-11T08:12:24;-3.10;99.90
22742;DHT22;11538;48.884;8.696;2024-01-11T08:14:51;-3.10;99.90
22742;DHT22;11538;48.884;8.696;2024-01-11T08:17:19;-3.10;99.90
22742;DHT22;11538;48.884;8.696;2024-01-11T08:19:46;-3.10;99.90
22742;DHT22;11538;48.884;8.696;2024-01-11T08:22:13;-3.10;99.90
22742;DHT22;11538;48.884;8.696;2024-01-11T08:24:41;-3.10;99.90
22742;DHT22;11538;48.884;8.696;2024-01-11T08:27:08;-3.10;99.90
22742;DHT22;11538;48.884;8.696;2024-01-11T08:29:34;-3.10;99.90
22742;DHT22;11538;48.884;8.696;2024-01-11T08:32:02;-3.00;99.90
22742;DHT22;11538;48.884;8.696;2024-01-11T08:34:49;-3.00;99.90
22742;DHT22;11538;48.884;8.696;2024-01-11T08:37:16;-3.00;99.90
22742;DHT22;11538;48.884;8.696;2024-01-11T08:39:43;-3.00;99.90
22742;DHT22;11538;48.884;8.696;2024-01-11T08:42:12;-3.00;99.90
22742;DHT22;11538;48.884;8.696;2024-01-11T08:44:45;-3.00;99.90
22742;DHT22;11538;48.884;8.696;2024-01-11T08:47:11;-3.00;99.90
22742;DHT22;11538;48.884;8.696;2024-01-11T08:49:39;-2.90;99.90
22742;DHT22;11538;48.884;8.696;2024-01-11T08:52:07;-2.80;99.90
22742;DHT22;11538;48.884;8.696;2024-01-11T08:54:34;-2.70;99.90
22742;DHT22;11538;48.884;8.696;2024-01-11T08:57:01;-2.70;99.90
22742;DHT22;11538;48.884;8.696;2024-01-11T08:59:29;-2.60;99.90
22742;DHT22;11538;48.884;8.696;2024-01-11T09:01:56;-2.50;99.90
22742;DHT22;11538;48.884;8.696;2024-01-11T09:04:39;-2.40;99.90
22742;DHT22;11538;48.884;8.696;2024-01-11T09:07:06;-2.30;99.90
22742;DHT22;11538;48.884;8.696;2024-01-11T09:09:33;-2.30;99.90
22742;DHT22;11538;48.884;8.696;2024-01-11T09:12:13;-2.20;99.90
22742;DHT22;11538;48.884;8.696;2024-01-11T09:14:40;-2.10;99.90
22742;DHT22;11538;48.884;8.696;2024-01-11T09:17:07;-2.00;99.90
22742;DHT22;11538;48.884;8.696;2024-01-11T09:19:35;-1.90;99.90
22742;DHT22;11538;48.884;8.696;2024-01-11T09:22:04;-1.80;99.90
22742;DHT22;11538;48.884;8.696;2024-01-11T09:24:31;-1.70;99.90
22742;DHT22;11538;48.884;8.696;2024-01-11T09:27:04;-1.50;99.90
22742;DHT22;11538;48.884;8.696;2024-01-11T09:29:31;-1.40;99.90
22742;DHT22;11538;48.884;8.696;2024-01-11T09:31:59;-1.20;99.90
22742;DHT22;11538;48.884;8.696;2024-01-11T09:34:26;-1.10;99.90
22742;DHT22;11538;48.884;8.696;2024-01-11T09:36:54;-0.90;99.90
22742;DHT22;11538;48.884;8.696;2024-01-11T09:39:26;-0.90;99.90
22742;DHT22;11538;48.884;8.696;2024-01-11T09:42:08;-0.80;99.90
22742;DHT22;11538;48.884;8.696;2024-01-11T09:44:37;-0.70;99.90
22742;DHT22;11538;48.884;8.696;2024-01-11T09:47:10;-0.50;99.90
22742;DHT22;11538;48.884;8.696;2024-01-11T09:49:44;-0.40;99.90
22742;DHT22;11538;48.884;8.696;2024-01-11T09:52:16;-0.30;99.90
22742;DHT22;11538;48.884;8.696;2024-01-11T09:54:46;-0.20;99.90
22742;DHT22;11538;48.884;8.696;2024-01-11T09:57:16;-0.10;99.90
22742;DHT22;11538;48.884;8.696;2024-01-11T09:59:50;0.00;99.90
22742;DHT22;11538;48.884;8.696;2024-01-11T10:02:25;0.10;99.90
22742;DHT22;11538;48.884;8.696;2024-01-11T10:04:56;0.10;99.90
22742;DHT22;11538;48.884;8.696;2024-01-11T10:07:24;0.30;99.90
22742;DHT22;11538;48.884;8.696;2024-01-11T10:09:51;0.40;99.90
22742;DHT22;11538;48.884;8.696;2024-01-11T10:12:20;0.50;99.90
22742;DHT22;11538;48.884;8.696;2024-01-11T10:14:52;0.50;99.90
22742;DHT22;11538;48.884;8.696;2024-01-11T10:17:19;0.60;99.90
22742;DHT22;11538;48.884;8.696;2024-01-11T10:19:53;0.70;99.90
22742;DHT22;11538;48.884;8.696;2024-01-11T10:22:21;0.80;99.90
22742;DHT22;11538;48.884;8.696;2024-01-11T10:25:11;0.80;99.90
22742;DHT22;11538;48.884;8.696;2024-01-11T10:27:45;0.80;99.90
22742;DHT22;11538;48.884;8.696;2024-01-11T10:30:16;0.90;99.90
22742;DHT22;11538;48.884;8.696;2024-01-11T10:32:45;0.90;99.90
22742;DHT22;11538;48.884;8.696;2024-01-11T10:35:14;0.90;99.90
22742;DHT22;11538;48.884;8.696;2024-01-11T10:37:44;1.00;99.90
22742;DHT22;11538;48.884;8.696;2024-01-11T10:40:11;1.00;99.90
22742;DHT22;11538;48.884;8.696;2024-01-11T10:42:42;1.10;99.90
22742;DHT22;11538;48.884;8.696;2024-01-11T10:45:15;1.10;99.90
22742;DHT22;11538;48.884;8.696;2024-01-11T10:48:03;1.20;99.90
22742;DHT22;11538;48.884;8.696;2024-01-11T10:50:36;1.30;99.90
22742;DHT22;11538;48.884;8.696;2024-01-11T10:54:03;1.30;99.90
22742;DHT22;11538;48.884;8.696;2024-01-11T10:56:14;1.40;99.90
22742;DHT22;11538;48.884;8.696;2024-01-11T10:58:48;1.50;99.90
22742;DHT22;11538;48.884;8.696;2024-01-11T11:01:16;1.50;99.90
22742;DHT22;11538;48.884;8.696;2024-01-11T11:03:45;1.60;99.90
22742;DHT22;11538;48.884;8.696;2024-01-11T11:06:21;1.60;99.90
22742;DHT22;11538;48.884;8.696;2024-01-11T11:08:49;1.70;99.90
22742;DHT22;11538;48.884;8.696;2024-01-11T11:11:18;1.80;99.90
22742;DHT22;11538;48.884;8.696;2024-01-11T11:13:47;1.80;99.90
22742;DHT22;11538;48.884;8.696;2024-01-11T11:16:16;1.90;99.90
22742;DHT22;11538;48.884;8.696;2024-01-11T11:18:43;1.90;99.90
22742;DHT22;11538;48.884;8.696;2024-01-11T11:21:11;2.00;99.90
22742;DHT22;11538;48.884;8.696;2024-01-11T11:23:38;2.00;99.90
22742;DHT22;11538;48.884;8.696;2024-01-11T11:26:14;2.10;99.90
22742;DHT22;11538;48.884;8.696;2024-01-11T11:28:44;2.10;99.90
22742;DHT22;11538;48.884;8.696;2024-01-11T11:31:11;2.20;99.90
22742;DHT22;11538;48.884;8.696;2024-01-11T11:33:40;2.20;99.90
22742;DHT22;11538;48.884;8.696;2024-01-11T11:36:12;2.30;99.90
22742;DHT22;11538;48.884;8.696;2024-01-11T11:38:40;2.30;99.90
22742;DHT22;11538;48.884;8.696;2024-01-11T11:41:08;2.30;99.90
22742;DHT22;11538;48.884;8.696;2024-01-11T11:43:36;2.40;99.90
22742;DHT22;11538;48.884;8.696;2024-01-11T11:46:03;2.40;99.90
22742;DHT22;11538;48.884;8.696;2024-01-11T11:53:47;2.70;99.90
22742;DHT22;11538;48.884;8.696;2024-01-11T11:56:20;2.70;99.90
22742;DHT22;11538;48.884;8.696;2024-01-11T11:58:49;2.70;99.90
22742;DHT22;11538;48.884;8.696;2024-01-11T12:01:18;2.70;99.90
22742;DHT22;11538;48.884;8.696;2024-01-11T12:03:46;2.80;99.90
22742;DHT22;11538;48.884;8.696;2024-01-11T12:06:18;2.80;99.90
22742;DHT22;11538;48.884;8.696;2024-01-11T12:08:48;2.80;99.90
22742;DHT22;11538;48.884;8.696;2024-01-11T12:11:20;2.80;99.90
22742;DHT22;11538;48.884;8.696;2024-01-11T12:13:49;2.80;99.90
22742;DHT22;11538;48.884;8.696;2024-01-11T12:16:17;2.90;99.90
22742;DHT22;11538;48.884;8.696;2024-01-11T12:18:44;2.90;99.90
22742;DHT22;11538;48.884;8.696;2024-01-11T12:21:11;2.90;99.90
22742;DHT22;11538;48.884;8.696;2024-01-11T12:23:39;3.00;99.90
22742;DHT22;11538;48.884;8.696;2024-01-11T12:26:07;3.10;99.90
22742;DHT22;11538;48.884;8.696;2024-01-11T12:28:40;3.10;99.90
22742;DHT22;11538;48.884;8.696;2024-01-11T12:31:12;3.10;99.90
22742;DHT22;11538;48.884;8.696;2024-01-11T12:33:40;3.20;99.90
22742;DHT22;11538;48.884;8.696;2024-01-11T12:36:09;3.20;99.90
22742;DHT22;11538;48.884;8.696;2024-01-11T12:38:36;3.20;99.90
22742;DHT22;11538;48.884;8.696;2024-01-11T12:41:04;3.30;99.90
22742;DHT22;11538;48.884;8.696;2024-01-11T12:43:33;3.30;99.90
22742;DHT22;11538;48.884;8.696;2024-01-11T12:46:01;3.30;99.90
22742;DHT22;11538;48.884;8.696;2024-01-11T12:48:29;3.40;99.90
22742;DHT22;11538;48.884;8.696;2024-01-11T12:50:57;3.40;99.90
22742;DHT22;11538;48.884;8.696;2024-01-11T12:53:40;3.40;99.90
22742;DHT22;11538;48.884;8.696;2024-01-11T12:56:08;3.40;99.90
22742;DHT22;11538;48.884;8.696;2024-01-11T12:58:38;3.50;99.90
22742;DHT22;11538;48.884;8.696;2024-01-11T13:01:06;3.50;99.90
22742;DHT22;11538;48.884;8.696;2024-01-11T13:03:38;3.50;99.90
22742;DHT22;11538;48.884;8.696;2024-01-11T13:06:07;3.50;99.90
22742;DHT22;11538;48.884;8.696;2024-01-11T13:08:35;3.50;99.90
22742;DHT22;11538;48.884;8.696;2024-01-11T13:11:06;3.50;99.90
22742;DHT22;11538;48.884;8.696;2024-01-11T13:13:34;3.50;99.90
22742;DHT22;11538;48.884;8.696;2024-01-11T13:16:03;3.40;99.90
22742;DHT22;11538;48.884;8.696;2024-01-11T13:18:35;3.40;99.90
22742;DHT22;11538;48.884;8.696;2024-01-11T13:21:02;3.40;99.90
22742;DHT22;11538;48.884;8.696;2024-01-11T13:23:29;3.40;99.90
22742;DHT22;11538;48.884;8.696;2024-01-11T13:25:57;3.30;99.90
22742;DHT22;11538;48.884;8.696;2024-01-11T13:28:24;3.30;99.90
22742;DHT22;11538;48.884;8.696;2024-01-11T13:30:53;3.30;99.90
22742;DHT22;11538;48.884;8.696;2024-01-11T13:33:20;3.30;99.90
22742;DHT22;11538;48.884;8.696;2024-01-11T13:35:50;3.30;99.90
22742;DHT22;11538;48.884;8.696;2024-01-11T13:38:18;3.30;99.90
22742;DHT22;11538;48.884;8.696;2024-01-11T13:40:49;3.30;99.90
22742;DHT22;11538;48.884;8.696;2024-01-11T13:43:16;3.30;99.90
22742;DHT22;11538;48.884;8.696;2024-01-11T13:45:44;3.30;99.90
22742;DHT22;11538;48.884;8.696;2024-01-11T13:48:11;3.30;99.90
22742;DHT22;11538;48.884;8.696;2024-01-11T13:50:38;3.20;99.90
22742;DHT22;11538;48.884;8.696;2024-01-11T13:53:06;3.20;99.90
22742;DHT22;11538;48.884;8.696;2024-01-11T13:55:33;3.10;99.90
22742;DHT22;11538;48.884;8.696;2024-01-11T13:58:06;3.10;99.90
22742;DHT22;11538;48.884;8.696;2024-01-11T14:00:33;3.10;99.90
22742;DHT22;11538;48.884;8.696;2024-01-11T14:03:01;3.10;99.90
22742;DHT22;11538;48.884;8.696;2024-01-11T14:05:28;3.00;99.90
22742;DHT22;11538;48.884;8.696;2024-01-11T14:07:56;3.00;99.90
22742;DHT22;11538;48.884;8.696;2024-01-11T14:10:30;3.00;99.90
22742;DHT22;11538;48.884;8.696;2024-01-11T14:12:57;3.00;99.90
22742;DHT22;11538;48.884;8.696;2024-01-11T14:15:25;2.90;99.90
22742;DHT22;11538;48.884;8.696;2024-01-11T14:17:52;2.90;99.90
22742;DHT22;11538;48.884;8.696;2024-01-11T14:20:21;2.90;99.90
22742;DHT22;11538;48.884;8.696;2024-01-11T14:22:50;2.90;99.90
22742;DHT22;11538;48.884;8.696;2024-01-11T14:25:21;2.80;99.90
22742;DHT22;11538;48.884;8.696;2024-01-11T14:27:51;2.80;99.90
22742;DHT22;11538;48.884;8.696;2024-01-11T14:30:19;2.70;99.90
22742;DHT22;11538;48.884;8.696;2024-01-11T14:32:48;2.70;99.90
22742;DHT22;11538;48.884;8.696;2024-01-11T14:35:16;2.70;99.90
22742;DHT22;11538;48.884;8.696;2024-01-11T14:37:44;2.70;99.90
22742;DHT22;11538;48.884;8.696;2024-01-11T14:40:12;2.60;99.90
22742;DHT22;11538;48.884;8.696;2024-01-11T14:42:40;2.60;99.90
22742;DHT22;11538;48.884;8.696;2024-01-11T14:45:08;2.60;99.90
22742;DHT22;11538;48.884;8.696;2024-01-11T14:47:35;2.50;99.90
22742;DHT22;11538;48.884;8.696;2024-01-11T14:50:03;2.50;99.90
22742;DHT22;11538;48.884;8.696;2024-01-11T14:52:31;2.50;99.90
22742;DHT22;11538;48.884;8.696;2024-01-11T14:54:58;2.40;99.90
22742;DHT22;11538;48.884;8.696;2024-01-11T14:57:25;2.40;99.90
22742;DHT22;11538;48.884;8.696;2024-01-11T14:59:52;2.40;99.90
22742;DHT22;11538;48.884;8.696;2024-01-11T15:02:20;2.40;99.90
22742;DHT22;11538;48.884;8.696;2024-01-11T15:04:48;2.30;99.90
22742;DHT22;11538;48.884;8.696;2024-01-11T15:07:15;2.30;99.90
22742;DHT22;11538;48.884;8.696;2024-01-11T15:09:42;2.20;99.90
22742;DHT22;11538;48.884;8.696;2024-01-11T15:12:13;2.20;99.90
22742;DHT22;11538;48.884;8.696;2024-01-11T15:14:40;2.20;99.90
22742;DHT22;11538;48.884;8.696;2024-01-11T15:17:07;2.10;99.90
22742;DHT22;11538;48.884;8.696;2024-01-11T15:19:34;2.10;99.90
22742;DHT22;11538;48.884;8.696;2024-01-11T15:22:02;2.10;99.90
22742;DHT22;11538;48.884;8.696;2024-01-11T15:24:29;2.00;99.90
22742;DHT22;11538;48.884;8.696;2024-01-11T15:26:56;2.00;99.90
22742;DHT22;11538;48.884;8.696;2024-01-11T15:29:23;1.90;99.90
22742;DHT22;11538;48.884;8.696;2024-01-11T15:31:50;1.90;99.90
22742;DHT22;11538;48.884;8.696;2024-01-11T15:34:18;1.80;99.90
22742;DHT22;11538;48.884;8.696;2024-01-11T15:36:46;1.80;99.90
22742;DHT22;11538;48.884;8.696;2024-01-11T15:39:13;1.80;99.90
22742;DHT22;11538;48.884;8.696;2024-01-11T15:41:54;1.70;99.90
22742;DHT22;11538;48.884;8.696;2024-01-11T15:44:38;1.70;99.90
22742;DHT22;11538;48.884;8.696;2024-01-11T15:47:06;1.60;99.90
22742;DHT22;11538;48.884;8.696;2024-01-11T15:49:35;1.60;99.90